createdAt,value
2019-06-15T00:01:35.569Z,19.19
2019-06-15T00:04:09.585Z,19.19
2019-06-15T00:06:44.614Z,19.20
2019-06-15T00:09:37.383Z,19.31
2019-06-15T00:12:24.576Z,19.27
2019-06-15T00:14:58.739Z,19.15
2019-06-15T00:17:32.952Z,19.13
2019-06-15T00:20:27.664Z,19.24
2019-06-15T00:23:08.227Z,19.17
2019-06-15T00:25:42.311Z,19.15
2019-06-15T00:28:29.643Z,19.26
2019-06-15T00:31:05.149Z,18.24
2019-06-15T00:33:39.563Z,19.08
2019-06-15T00:36:25.243Z,19.21
2019-06-15T00:38:59.389Z,19.11
2019-06-15T00:41:33.481Z,18.21
2019-06-15T00:44:19.364Z,19.17
2019-06-15T00:46:53.474Z,19.05
2019-06-15T00:49:27.652Z,19.00
2019-06-15T00:52:02.965Z,19.12
2019-06-15T00:54:54.381Z,19.26
2019-06-15T00:57:29.062Z,19.10
2019-06-15T01:00:02.983Z,19.05
2019-06-15T01:02:35.447Z,19.08
2019-06-15T01:05:20.678Z,19.19
2019-06-15T01:07:54.731Z,19.02
2019-06-15T01:10:30.893Z,18.97
2019-06-15T01:13:04.448Z,18.95
2019-06-15T01:15:36.993Z,18.98
2019-06-15T01:18:11.297Z,18.96
2019-06-15T01:20:45.311Z,18.90
2019-06-15T01:23:33.436Z,18.95
2019-06-15T01:26:07.365Z,18.85
2019-06-15T01:28:40.743Z,18.83
2019-06-15T01:31:17.521Z,18.88
2019-06-15T01:33:52.240Z,18.93
2019-06-15T01:36:39.021Z,19.13
2019-06-15T01:39:31.556Z,18.94
2019-06-15T01:42:06.518Z,18.97
2019-06-15T01:44:40.435Z,18.92
2019-06-15T01:47:14.251Z,18.84
2019-06-15T01:49:48.683Z,18.81
2019-06-15T01:52:23.649Z,18.82
2019-06-15T03:40:01.525Z,17.53
2019-06-15T03:42:36.161Z,17.44
2019-06-15T03:45:11.243Z,17.38
2019-06-15T03:48:32.468Z,17.51
2019-06-15T03:51:05.690Z,17.48
2019-06-15T03:53:39.554Z,17.52
2019-06-15T03:56:21.718Z,17.55
2019-06-15T03:59:31.590Z,17.69
2019-06-15T04:02:05.168Z,17.62
2019-06-15T04:04:38.921Z,17.57
2019-06-15T04:07:12.141Z,17.65
2019-06-15T04:09:44.763Z,17.69
2019-06-15T04:12:22.567Z,17.68
2019-06-15T04:14:56.200Z,17.65
2019-06-15T04:17:30.123Z,17.58
2019-06-15T04:20:06.559Z,17.54
2019-06-15T04:22:40.066Z,17.47
2019-06-15T04:25:13.398Z,17.44
2019-06-15T04:27:46.952Z,17.41
2019-06-15T04:30:20.760Z,17.33
2019-06-15T04:32:57.329Z,17.39
2019-06-15T04:35:31.173Z,17.41
2019-06-15T04:38:04.721Z,17.44
2019-06-15T04:40:42.776Z,17.45
2019-06-15T04:43:15.984Z,17.52
2019-06-15T04:47:01.145Z,17.58
2019-06-15T04:49:34.936Z,17.50
2019-06-15T04:53:50.665Z,17.65
2019-06-15T05:09:53.164Z,17.56
2019-06-15T05:12:27.440Z,17.58
2019-06-15T05:15:13.232Z,17.65
2019-06-15T05:17:47.290Z,17.57
2019-06-15T05:21:58.933Z,17.73
2019-06-15T05:24:32.156Z,17.66
2019-06-15T05:27:06.818Z,17.65
2019-06-15T05:29:40.471Z,17.62
2019-06-15T05:32:14.007Z,17.58
2019-06-15T05:34:48.165Z,17.53
2019-06-15T05:37:22.796Z,17.59
2019-06-15T05:39:56.843Z,17.58
2019-06-15T05:42:31.176Z,17.64
2019-06-15T06:29:45.863Z,18.41
2019-06-15T06:32:19.437Z,18.41
2019-06-15T06:34:59.079Z,18.48
2019-06-15T06:37:33.012Z,18.49
2019-06-15T06:40:08.170Z,18.51
2019-06-15T06:42:43.735Z,18.55
2019-06-15T06:45:18.014Z,18.63
2019-06-15T06:47:51.635Z,18.68
2019-06-15T06:50:25.160Z,18.78
2019-06-15T06:52:58.365Z,18.88
2019-06-15T06:55:42.041Z,19.03
2019-06-15T06:58:14.253Z,18.97
2019-06-15T07:01:05.778Z,19.20
2019-06-15T07:03:39.394Z,19.15
2019-06-15T07:06:14.076Z,19.22
2019-06-15T07:09:00.733Z,19.34
2019-06-15T07:11:37.510Z,19.27
2019-06-15T07:14:25.324Z,19.53
2019-06-15T07:17:08.573Z,19.64
2019-06-15T07:19:47.361Z,19.55
2019-06-15T07:22:30.774Z,19.73
2019-06-15T07:25:04.431Z,19.63
2019-06-15T07:27:38.056Z,19.76
2019-06-15T07:30:12.484Z,19.88
2019-06-15T07:32:45.406Z,20.08
2019-06-15T07:35:19.040Z,20.14
2019-06-15T07:37:57.618Z,20.27
2019-06-15T07:40:30.848Z,20.48
2019-06-15T07:43:03.943Z,20.53
2019-06-15T07:45:38.484Z,20.55
2019-06-15T07:48:23.957Z,20.76
2019-06-15T07:51:01.945Z,20.70
2019-06-15T07:53:36.536Z,20.74
2019-06-15T07:56:23.065Z,20.93
2019-06-15T07:58:57.354Z,20.77
2019-06-15T08:01:42.856Z,20.96
2019-06-15T08:04:17.490Z,20.92
2019-06-15T08:06:50.830Z,21.08
2019-06-15T08:09:52.830Z,21.37
2019-06-15T08:12:48.617Z,21.52
2019-06-15T08:15:21.747Z,21.41
2019-06-15T08:17:56.287Z,21.45
2019-06-15T08:20:33.927Z,21.56
2019-06-15T08:23:26.641Z,21.74
2019-06-15T08:26:00.631Z,21.78
2019-06-15T08:28:40.266Z,21.89
2019-06-15T08:31:12.136Z,21.88
2019-06-15T08:33:46.800Z,22.41
2019-06-15T08:36:39.273Z,22.53
2019-06-15T08:39:14.897Z,22.31
2019-06-15T08:41:51.219Z,22.23
2019-06-15T08:44:25.664Z,22.30
2019-06-15T08:47:01.475Z,22.24
2019-06-15T08:49:48.446Z,22.84
2019-06-15T08:52:21.825Z,22.80
2019-06-15T08:55:29.952Z,23.09
2019-06-15T08:59:12.398Z,23.26
2019-06-15T09:01:45.754Z,23.24
2019-06-15T09:04:19.069Z,23.24
2019-06-15T09:06:59.131Z,23.27
2019-06-15T09:20:12.628Z,23.42
2019-06-15T09:23:06.556Z,23.50
2019-06-15T09:25:51.775Z,23.54
2019-06-15T09:28:27.397Z,23.44
2019-06-15T09:31:20.745Z,23.48
2019-06-15T09:33:54.507Z,23.24
2019-06-15T09:36:28.855Z,23.11
2019-06-15T09:39:15.969Z,23.12
2019-06-15T09:41:51.683Z,22.86
2019-06-15T09:44:37.820Z,22.93
2019-06-15T09:47:12.421Z,22.87
2019-06-15T09:49:51.713Z,22.87
2019-06-15T09:52:43.386Z,22.98
2019-06-15T09:55:20.826Z,22.86
2019-06-15T09:58:02.467Z,22.86
2019-06-15T10:09:34.583Z,23.24
2019-06-15T10:12:27.242Z,23.12
2019-06-15T10:15:01.256Z,22.92
2019-06-15T10:17:34.787Z,22.78
2019-06-15T10:20:09.692Z,22.55
2019-06-15T10:22:44.252Z,22.45
2019-06-15T10:25:31.008Z,22.55
2019-06-15T10:28:23.109Z,22.49
2019-06-15T10:31:00.615Z,22.28
2019-06-15T10:33:33.059Z,22.27
2019-06-15T10:36:19.945Z,22.44
2019-06-15T10:39:06.723Z,22.40
2019-06-15T10:41:41.562Z,22.14
2019-06-15T10:44:15.464Z,22.17
2019-06-15T10:46:49.397Z,22.11
2019-06-15T10:49:23.316Z,22.00
2019-06-15T10:52:09.839Z,22.12
2019-06-15T10:54:44.107Z,21.91
2019-06-15T10:57:17.960Z,21.87
2019-06-15T10:59:57.647Z,21.83
2019-06-15T11:02:29.905Z,21.77
2019-06-15T15:14:17.367Z,21.93
2019-06-15T15:17:00.294Z,21.77
2019-06-15T15:19:36.073Z,21.57
2019-06-15T15:22:29.816Z,20.56
2019-06-15T15:25:03.377Z,20.13
2019-06-15T15:27:57.113Z,19.86
2019-06-15T15:30:39.311Z,19.67
2019-06-15T15:33:33.050Z,19.73
2019-06-15T15:36:19.522Z,19.74
2019-06-15T15:38:56.075Z,19.57
2019-06-15T15:41:33.496Z,19.60
2019-06-15T15:44:18.758Z,19.91
2019-06-15T15:47:10.356Z,19.95
2019-06-15T15:49:43.880Z,20.06
2019-06-15T15:52:17.867Z,20.05
2019-06-15T15:54:51.461Z,20.32
2019-06-15T15:57:26.629Z,20.59
2019-06-15T16:00:21.044Z,21.29
2019-06-15T16:03:07.646Z,21.38
2019-06-15T16:05:47.102Z,21.28
2019-06-15T16:08:24.768Z,21.20
2019-06-15T16:11:03.787Z,21.04
2019-06-15T16:13:43.091Z,20.94
2019-06-15T16:16:36.578Z,20.93
2019-06-15T16:19:22.412Z,20.64
2019-06-15T16:22:08.258Z,20.79
2019-06-15T16:24:41.643Z,20.79
2019-06-15T16:27:15.978Z,20.70
2019-06-15T16:29:49.870Z,20.84
2019-06-15T16:32:26.433Z,21.36
2019-06-15T16:35:16.484Z,22.24
2019-06-15T16:37:53.155Z,22.24
2019-06-15T16:40:46.783Z,22.76
2019-06-15T16:43:26.244Z,22.66
2019-06-15T16:45:59.494Z,22.63
2019-06-15T16:48:32.714Z,22.40
2019-06-15T16:51:06.857Z,22.30
2019-06-15T16:53:41.388Z,22.11
2019-06-15T16:56:26.881Z,22.27
2019-06-15T16:59:18.301Z,22.15
2019-06-15T17:01:52.570Z,22.32
2019-06-15T17:04:26.903Z,22.08
2019-06-15T17:07:00.117Z,22.03
2019-06-15T17:09:36.056Z,22.45
2019-06-15T17:12:08.813Z,22.91
2019-06-15T17:14:43.098Z,22.81
2019-06-15T17:17:17.342Z,22.18
2019-06-15T17:19:51.135Z,22.13
2019-06-15T17:22:25.443Z,22.45
2019-06-15T17:25:05.956Z,22.92
2019-06-15T17:27:42.526Z,23.17
2019-06-15T17:30:17.301Z,23.79
2019-06-15T17:32:50.616Z,24.07
2019-06-15T17:35:24.164Z,24.29
2019-06-15T17:38:07.016Z,23.54
2019-06-15T17:40:41.607Z,24.21
2019-06-15T17:43:27.897Z,24.85
2019-06-15T17:46:07.399Z,25.22
2019-06-15T17:48:59.851Z,25.37
2019-06-15T17:51:36.799Z,24.34
2019-06-15T17:54:11.769Z,24.14
2019-06-15T17:56:46.203Z,24.66
2019-06-15T17:59:38.181Z,24.91
2019-06-15T18:02:12.577Z,23.27
2019-06-15T18:04:56.540Z,22.09
2019-06-15T18:07:29.610Z,21.34
2019-06-15T18:10:17.100Z,21.36
2019-06-15T18:13:10.224Z,21.04
2019-06-15T18:15:42.727Z,20.69
2019-06-15T18:18:16.737Z,20.50
2019-06-15T18:21:11.930Z,20.62
2019-06-15T18:23:47.438Z,20.41
2019-06-15T18:26:21.064Z,20.06
2019-06-15T18:28:54.709Z,19.77
2019-06-15T18:31:28.031Z,19.76
2019-06-15T18:34:09.442Z,19.59
2019-06-15T18:36:39.678Z,19.60
2019-06-15T18:39:16.536Z,19.55
2019-06-15T18:41:52.992Z,19.43
2019-06-15T18:44:33.263Z,19.41
2019-06-15T18:47:08.589Z,19.54
2019-06-15T18:49:42.115Z,19.50
2019-06-15T18:52:18.284Z,19.47
2019-06-15T18:54:56.984Z,19.43
2019-06-15T18:57:30.968Z,19.41
2019-06-15T19:00:07.170Z,19.40
2019-06-15T19:02:40.167Z,19.27
2019-06-15T19:05:13.908Z,19.29
2019-06-15T19:07:47.221Z,19.23
2019-06-15T19:10:30.163Z,19.11
2019-06-15T19:13:03.948Z,19.08
2019-06-15T19:15:38.270Z,18.97
2019-06-15T19:18:25.997Z,19.11
2019-06-15T19:21:00.207Z,18.92
2019-06-15T19:23:35.920Z,18.82
2019-06-15T19:26:08.680Z,18.78
2019-06-15T19:28:46.075Z,18.64
2019-06-15T19:31:19.630Z,18.60
2019-06-15T19:33:56.819Z,18.59
2019-06-15T19:36:30.194Z,18.45
2019-06-15T19:39:06.162Z,18.41
2019-06-15T19:41:41.258Z,18.47
2019-06-15T19:44:32.166Z,18.51
2019-06-15T19:47:54.156Z,18.26
2019-06-15T19:50:39.482Z,18.30
2019-06-15T19:53:13.721Z,18.16
2019-06-15T19:56:06.803Z,18.20
2019-06-15T19:58:42.445Z,18.00
2019-06-15T20:01:19.986Z,17.93
2019-06-15T20:03:57.495Z,17.93
2019-06-15T20:06:37.045Z,17.91
2019-06-15T20:09:12.986Z,17.83
2019-06-15T20:11:59.629Z,17.94
2019-06-15T20:14:32.983Z,17.74
2019-06-15T20:17:24.659Z,17.76
2019-06-15T20:19:57.901Z,17.61
2019-06-15T20:22:31.438Z,17.56
2019-06-15T20:25:06.586Z,17.51
2019-06-15T20:27:41.466Z,17.42
2019-06-15T20:30:16.949Z,17.43
2019-06-15T20:33:03.174Z,17.43
2019-06-15T20:35:46.897Z,17.33
2019-06-15T20:38:20.294Z,17.41
2019-06-15T20:40:56.414Z,17.26
2019-06-15T20:43:48.472Z,17.28
2019-06-15T20:46:22.290Z,17.12
2019-06-15T20:48:57.124Z,16.97
2019-06-15T20:51:30.651Z,16.91
2019-06-15T20:54:06.985Z,16.80
2019-06-15T20:56:41.428Z,16.79
2019-06-15T20:59:16.958Z,16.75
2019-06-15T21:01:51.411Z,16.65
2019-06-15T21:04:26.712Z,16.61
2019-06-15T21:07:01.429Z,16.63
2019-06-15T21:09:53.025Z,16.77
2019-06-15T21:12:26.945Z,16.59
2019-06-15T21:15:25.781Z,16.70
2019-06-15T21:18:09.652Z,16.55
2019-06-15T21:20:47.013Z,16.48
2019-06-15T21:23:21.562Z,16.49
2019-06-15T21:25:59.684Z,16.42
2019-06-15T21:28:33.762Z,16.40
2019-06-15T21:31:07.731Z,16.29
2019-06-15T21:34:00.341Z,16.35
2019-06-15T21:36:53.550Z,16.28
2019-06-15T21:39:27.501Z,16.19
2019-06-15T21:42:00.701Z,16.11
2019-06-15T21:44:36.210Z,16.05
2019-06-15T21:47:13.706Z,15.93
2019-06-15T21:49:59.019Z,15.94
2019-06-15T21:52:32.531Z,15.78
2019-06-15T21:55:07.016Z,15.78
2019-06-15T21:57:40.820Z,15.65
2019-06-15T22:00:17.902Z,15.58
2019-06-15T22:02:53.426Z,15.51
2019-06-15T22:05:26.999Z,15.46
2019-06-15T22:08:00.958Z,15.41
2019-06-15T22:10:47.206Z,15.53
2019-06-15T22:13:37.269Z,15.46
2019-06-15T22:16:29.892Z,15.38
2019-06-15T22:19:07.717Z,15.17
2019-06-15T22:21:41.330Z,15.15
2019-06-15T22:24:16.267Z,15.19
2019-06-15T22:26:59.588Z,15.23
2019-06-15T22:29:36.463Z,15.18
2019-06-15T22:32:10.050Z,15.02
2019-06-15T22:34:47.126Z,14.97
2019-06-15T22:37:20.695Z,14.90
2019-06-15T22:39:56.203Z,14.83
2019-06-15T22:42:36.486Z,14.79
2019-06-15T22:45:17.622Z,14.77
2019-06-15T22:47:51.121Z,14.71
2019-06-15T22:50:24.432Z,14.78
2019-06-15T22:52:57.656Z,14.71
2019-06-15T22:55:43.314Z,14.95
2019-06-15T22:58:18.065Z,14.65
2019-06-15T23:01:05.881Z,14.56
2019-06-15T23:03:38.553Z,14.53
2019-06-15T23:06:11.785Z,14.52
2019-06-15T23:08:47.116Z,14.51
2019-06-15T23:11:22.325Z,14.52
2019-06-15T23:13:57.542Z,14.64
2019-06-15T23:16:31.346Z,14.67
2019-06-15T23:19:07.738Z,14.63
2019-06-15T23:21:41.480Z,14.51
2019-06-15T23:24:16.623Z,14.46
2019-06-15T23:26:50.682Z,14.31
2019-06-15T23:29:23.954Z,14.19
2019-06-15T23:32:03.296Z,14.16
2019-06-15T23:34:56.487Z,14.22
2019-06-15T23:37:30.310Z,14.19
2019-06-15T23:40:26.957Z,14.25
2019-06-15T23:43:00.032Z,14.13
2019-06-15T23:45:36.097Z,13.97
2019-06-15T23:48:09.737Z,13.88
2019-06-15T23:50:43.394Z,13.80
2019-06-15T23:53:18.679Z,13.73
2019-06-15T23:55:50.487Z,13.72
2019-06-15T23:58:37.199Z,13.80
